Time,TemperatureF,DewpointF,PressureIn,WindDirection,WindDirectionDegrees,WindSpeedMPH,WindSpeedGustMPH,Humidity,HourlyPrecipIn,Conditions,Clouds,dailyrainin,SoftwareType,DateUTC
2013-09-30 00:06:00,58.0,34.0,29.89,ESE,115,0.0,1.0,40,0.00,,,0.00,weatherlink.com 1.10,2013-09-30 06:06:00,
2013-09-30 00:21:00,58.6,34.0,29.89,ESE,115,0.0,0.0,39,0.00,,,0.00,weatherlink.com 1.10,2013-09-30 06:21:00,
2013-09-30 00:36:00,59.4,35.0,29.89,ESE,116,0.0,0.0,41,0.00,,,0.00,weatherlink.com 1.10,2013-09-30 06:36:00,
2013-09-30 00:51:00,59.3,35.0,29.88,ESE,115,0.0,0.0,40,0.00,,,0.00,weatherlink.com 1.10,2013-09-30 06:51:00,
2013-09-30 01:06:00,55.7,34.0,29.88,ESE,115,0.0,1.0,44,0.00,,,0.00,weatherlink.com 1.10,2013-09-30 07:06:00,
2013-09-30 01:21:00,53.6,34.0,29.89,ESE,115,0.0,0.0,47,0.00,,,0.00,weatherlink.com 1.10,2013-09-30 07:21:00,
2013-09-30 01:36:00,53.8,36.0,29.89,ESE,115,0.0,1.0,51,0.00,,,0.00,weatherlink.com 1.10,2013-09-30 07:36:00,
2013-09-30 01:51:00,53.1,34.0,29.89,ESE,115,0.0,1.0,48,0.00,,,0.00,weatherlink.com 1.10,2013-09-30 07:51:00,
2013-09-30 02:21:00,56.0,35.0,29.88,North,6,0.0,0.0,45,0.00,,,0.00,weatherlink.com 1.10,2013-09-30 08:21:00,
2013-09-30 02:36:00,55.2,33.0,29.89,North,7,0.0,0.0,43,0.00,,,0.00,weatherlink.com 1.10,2013-09-30 08:36:00,
2013-09-30 02:52:00,55.5,36.0,29.88,North,6,0.0,0.0,49,0.00,,,0.00,weatherlink.com 1.10,2013-09-30 08:52:00,
2013-09-30 03:07:00,54.7,34.0,29.88,North,6,0.0,0.0,45,0.00,,,0.00,weatherlink.com 1.10,2013-09-30 09:07:00,
2013-09-30 03:22:00,55.4,37.0,29.88,North,6,0.0,0.0,50,0.00,,,0.00,weatherlink.com 1.10,2013-09-30 09:22:00,
2013-09-30 03:37:00,53.0,36.0,29.87,North,6,0.0,1.0,53,0.00,,,0.00,weatherlink.com 1.10,2013-09-30 09:37:00,
2013-09-30 03:52:00,52.7,36.0,29.87,North,6,0.0,0.0,54,0.00,,,0.00,weatherlink.com 1.10,2013-09-30 09:52:00,
2013-09-30 04:07:00,50.8,33.0,29.87,North,6,0.0,1.0,50,0.00,,,0.00,weatherlink.com 1.10,2013-09-30 10:07:00,
2013-09-30 04:22:00,49.7,35.0,29.87,North,6,1.0,1.0,58,0.00,,,0.00,weatherlink.com 1.10,2013-09-30 10:22:00,
2013-09-30 04:37:00,51.1,37.0,29.87,North,7,0.0,0.0,58,0.00,,,0.00,weatherlink.com 1.10,2013-09-30 10:37:00,
2013-09-30 04:52:00,51.8,37.0,29.87,North,6,0.0,0.0,57,0.00,,,0.00,weatherlink.com 1.10,2013-09-30 10:52:00,
2013-09-30 05:07:00,49.2,33.0,29.87,North,6,0.0,0.0,55,0.00,,,0.00,weatherlink.com 1.10,2013-09-30 11:07:00,
2013-09-30 05:22:00,47.7,34.0,29.87,North,6,0.0,0.0,59,0.00,,,0.00,weatherlink.com 1.10,2013-09-30 11:22:00,
2013-09-30 05:37:00,48.1,34.0,29.87,North,7,0.0,0.0,59,0.00,,,0.00,weatherlink.com 1.10,2013-09-30 11:37:00,
2013-09-30 05:52:00,48.5,35.0,29.88,North,6,0.0,1.0,61,0.00,,,0.00,weatherlink.com 1.10,2013-09-30 11:52:00,
2013-09-30 06:07:00,46.7,33.0,29.88,North,7,0.0,1.0,59,0.00,,,0.00,weatherlink.com 1.10,2013-09-30 12:07:00,
2013-09-30 06:22:00,48.1,33.0,29.88,North,10,1.0,1.0,57,0.00,,,0.00,weatherlink.com 1.10,2013-09-30 12:22:00,
2013-09-30 06:37:00,48.1,34.0,29.88,NNE,12,0.0,0.0,59,0.00,,,0.00,weatherlink.com 1.10,2013-09-30 12:37:00,
2013-09-30 06:52:00,47.3,34.0,29.89,ESE,121,0.0,2.0,61,0.00,,,0.00,weatherlink.com 1.10,2013-09-30 12:52:00,
2013-09-30 07:07:00,49.4,35.0,29.89,East,84,0.0,1.0,57,0.00,,,0.00,weatherlink.com 1.10,2013-09-30 13:07:00,
2013-09-30 07:22:00,49.5,33.0,29.89,NNE,33,0.0,2.0,54,0.00,,,0.00,weatherlink.com 1.10,2013-09-30 13:22:00,
2013-09-30 07:37:00,47.9,33.0,29.88,NNE,33,0.0,0.0,57,0.00,,,0.00,weatherlink.com 1.10,2013-09-30 13:37:00,
2013-09-30 07:52:00,48.8,36.0,29.89,NNE,32,0.0,1.0,61,0.00,,,0.00,weatherlink.com 1.10,2013-09-30 13:52:00,
2013-09-30 08:07:00,49.6,35.0,29.89,NNE,32,0.0,1.0,58,0.00,,,0.00,weatherlink.com 1.10,2013-09-30 14:07:00,
2013-09-30 08:22:00,51.9,36.0,29.89,West,267,1.0,1.0,55,0.00,,,0.00,weatherlink.com 1.10,2013-09-30 14:22:00,
2013-09-30 08:37:00,54.0,36.0,29.89,NNW,335,0.0,-999.0,50,-99.99,,,0.00,weatherlink.com 1.10,2013-09-30 14:37:00,
2013-09-30 08:52:00,55.7,36.0,29.89,North,359,0.0,2.0,48,0.00,,,0.00,weatherlink.com 1.10,2013-09-30 14:52:00,
2013-09-30 09:07:00,59.1,36.0,29.89,North,359,1.0,1.0,43,0.00,,,0.00,weatherlink.com 1.10,2013-09-30 15:07:00,
2013-09-30 09:22:00,59.9,36.0,29.88,North,3,2.0,2.0,41,0.00,,,0.00,weatherlink.com 1.10,2013-09-30 15:22:00,
2013-09-30 09:37:00,60.8,35.0,29.88,NNW,335,0.0,3.0,38,0.00,,,0.00,weatherlink.com 1.10,2013-09-30 15:37:00,
2013-09-30 09:52:00,61.7,35.0,29.88,North,354,1.0,3.0,37,0.00,,,0.00,weatherlink.com 1.10,2013-09-30 15:52:00,
2013-09-30 10:07:00,63.8,36.0,29.87,SSE,149,0.0,1.0,35,0.00,,,0.00,weatherlink.com 1.10,2013-09-30 16:07:00,
2013-09-30 10:22:00,65.6,35.0,29.87,South,186,1.0,3.0,32,0.00,,,0.00,weatherlink.com 1.10,2013-09-30 16:22:00,
2013-09-30 10:37:00,67.4,34.0,29.86,ESE,123,1.0,2.0,29,0.00,,,0.00,weatherlink.com 1.10,2013-09-30 16:37:00,
2013-09-30 10:52:00,70.6,34.0,29.85,West,264,0.0,1.0,26,0.00,,,0.00,weatherlink.com 1.10,2013-09-30 16:52:00,
2013-09-30 11:08:00,71.0,32.0,29.85,WNW,297,0.0,3.0,24,0.00,,,0.00,weatherlink.com 1.10,2013-09-30 17:08:00,
2013-09-30 11:23:00,71.2,31.0,29.84,SW,214,1.0,1.0,23,0.00,,,0.00,weatherlink.com 1.10,2013-09-30 17:23:00,
2013-09-30 11:38:00,72.8,33.0,29.83,SSW,212,0.0,2.0,23,0.00,,,0.00,weatherlink.com 1.10,2013-09-30 17:38:00,
2013-09-30 11:53:00,74.8,32.0,29.83,SSE,159,0.0,5.0,21,0.00,,,0.00,weatherlink.com 1.10,2013-09-30 17:53:00,
2013-09-30 12:08:00,75.1,33.0,29.82,South,182,2.0,3.0,21,0.00,,,0.00,weatherlink.com 1.10,2013-09-30 18:08:00,
2013-09-30 12:23:00,75.2,33.0,29.81,SSW,193,1.0,5.0,21,0.00,,,0.00,weatherlink.com 1.10,2013-09-30 18:23:00,
2013-09-30 12:38:00,75.6,33.0,29.80,SSE,159,3.0,4.0,21,0.00,,,0.00,weatherlink.com 1.10,2013-09-30 18:38:00,
2013-09-30 12:53:00,76.9,34.0,29.79,SSW,195,1.0,3.0,21,0.00,,,0.00,weatherlink.com 1.10,2013-09-30 18:53:00,
2013-09-30 13:08:00,78.5,35.0,29.78,SSE,153,0.0,4.0,21,0.00,,,0.00,weatherlink.com 1.10,2013-09-30 19:08:00,
2013-09-30 13:23:00,79.5,36.0,29.77,SSW,210,1.0,3.0,21,0.00,,,0.00,weatherlink.com 1.10,2013-09-30 19:23:00,
2013-09-30 13:38:00,80.3,33.0,29.76,SW,226,2.0,5.0,18,0.00,,,0.00,weatherlink.com 1.10,2013-09-30 19:38:00,
2013-09-30 13:53:00,80.3,33.0,29.75,SE,126,3.0,5.0,18,0.00,,,0.00,weatherlink.com 1.10,2013-09-30 19:53:00,
2013-09-30 14:08:00,81.6,33.0,29.74,SE,142,2.0,3.0,17,0.00,,,0.00,weatherlink.com 1.10,2013-09-30 20:08:00,
2013-09-30 14:23:00,82.2,32.0,29.73,NW,324,1.0,5.0,16,0.00,,,0.00,weatherlink.com 1.10,2013-09-30 20:23:00,
2013-09-30 14:38:00,82.3,33.0,29.72,NNW,345,1.0,4.0,17,0.00,,,0.00,weatherlink.com 1.10,2013-09-30 20:38:00,
2013-09-30 14:53:00,83.4,33.0,29.71,SSW,200,1.0,5.0,16,0.00,,,0.00,weatherlink.com 1.10,2013-09-30 20:53:00,
2013-09-30 15:08:00,82.3,30.0,29.70,South,170,2.0,6.0,15,0.00,,,0.00,weatherlink.com 1.10,2013-09-30 21:08:00,
2013-09-30 15:23:00,82.5,32.0,29.70,West,266,0.0,4.0,16,0.00,,,0.00,weatherlink.com 1.10,2013-09-30 21:23:00,
2013-09-30 15:38:00,83.7,31.0,29.69,NE,41,0.0,3.0,15,0.00,,,0.00,weatherlink.com 1.10,2013-09-30 21:38:00,
2013-09-30 15:53:00,84.9,31.0,29.69,NNW,343,0.0,6.0,14,0.00,,,0.00,weatherlink.com 1.10,2013-09-30 21:53:00,
2013-09-30 16:08:00,84.9,31.0,29.68,West,274,2.0,5.0,14,0.00,,,0.00,weatherlink.com 1.10,2013-09-30 22:08:00,
2013-09-30 16:24:00,84.9,31.0,29.68,NNE,13,0.0,3.0,14,0.00,,,0.00,weatherlink.com 1.10,2013-09-30 22:24:00,
2013-09-30 16:39:00,85.3,29.0,29.67,WSW,246,2.0,3.0,13,0.00,,,0.00,weatherlink.com 1.10,2013-09-30 22:39:00,
2013-09-30 16:54:00,85.5,31.0,29.67,NW,314,0.0,5.0,14,0.00,,,0.00,weatherlink.com 1.10,2013-09-30 22:54:00,
2013-09-30 17:09:00,87.5,33.0,29.67,SW,235,0.0,2.0,14,0.00,,,0.00,weatherlink.com 1.10,2013-09-30 23:09:00,
2013-09-30 17:24:00,84.8,31.0,29.66,North,11,0.0,3.0,14,0.00,,,0.00,weatherlink.com 1.10,2013-09-30 23:24:00,
2013-09-30 17:39:00,83.8,30.0,29.66,WSW,257,0.0,4.0,14,0.00,,,0.00,weatherlink.com 1.10,2013-09-30 23:39:00,
2013-09-30 17:54:00,82.1,33.0,29.66,WNW,291,0.0,3.0,17,0.00,,,0.00,weatherlink.com 1.10,2013-09-30 23:54:00,
2013-09-30 18:09:00,80.9,31.0,29.66,SW,226,0.0,2.0,16,0.00,,,0.00,weatherlink.com 1.10,2013-10-01 00:09:00,
2013-09-30 18:24:00,79.6,31.0,29.66,WNW,300,0.0,2.0,17,0.00,,,0.00,weatherlink.com 1.10,2013-10-01 00:24:00,
2013-09-30 18:39:00,78.2,28.0,29.66,WNW,302,0.0,3.0,16,0.00,,,0.00,weatherlink.com 1.10,2013-10-01 00:39:00,
2013-09-30 18:54:00,76.8,29.0,29.66,North,353,1.0,6.0,17,0.00,,,0.00,weatherlink.com 1.10,2013-10-01 00:54:00,
2013-09-30 19:09:00,75.7,29.0,29.67,North,354,0.0,2.0,18,0.00,,,0.00,weatherlink.com 1.10,2013-10-01 01:09:00,
2013-09-30 19:24:00,74.2,31.0,29.67,WNW,287,0.0,1.0,20,0.00,,,0.00,weatherlink.com 1.10,2013-10-01 01:24:00,
2013-09-30 19:39:00,72.9,31.0,29.68,WNW,287,0.0,0.0,21,0.00,,,0.00,weatherlink.com 1.10,2013-10-01 01:39:00,
2013-09-30 19:54:00,72.1,35.0,29.68,WNW,287,0.0,0.0,26,0.00,,,0.00,weatherlink.com 1.10,2013-10-01 01:54:00,
2013-09-30 20:09:00,70.6,32.0,29.69,WNW,287,0.0,1.0,24,0.00,,,0.00,weatherlink.com 1.10,2013-10-01 02:09:00,
2013-09-30 20:24:00,69.3,31.0,29.69,WNW,287,0.0,0.0,24,0.00,,,0.00,weatherlink.com 1.10,2013-10-01 02:24:00,
2013-09-30 20:39:00,67.8,31.0,29.70,WNW,287,0.0,1.0,25,0.00,,,0.00,weatherlink.com 1.10,2013-10-01 02:39:00,
2013-09-30 20:54:00,67.2,33.0,29.70,WNW,288,0.0,1.0,28,0.00,,,0.00,weatherlink.com 1.10,2013-10-01 02:54:00,
2013-09-30 21:09:00,66.0,34.0,29.71,WNW,288,0.0,1.0,30,0.00,,,0.00,weatherlink.com 1.10,2013-10-01 03:09:00,
2013-09-30 21:24:00,65.1,34.0,29.71,WNW,288,0.0,1.0,31,0.00,,,0.00,weatherlink.com 1.10,2013-10-01 03:24:00,
2013-09-30 21:39:00,65.9,36.0,29.71,WNW,288,0.0,1.0,33,0.00,,,0.00,weatherlink.com 1.10,2013-10-01 03:39:00,
2013-09-30 21:54:00,65.4,35.0,29.72,WNW,288,0.0,0.0,33,0.00,,,0.00,weatherlink.com 1.10,2013-10-01 03:54:00,
2013-09-30 22:09:00,63.5,34.0,29.72,WNW,288,0.0,0.0,33,0.00,,,0.00,weatherlink.com 1.10,2013-10-01 04:09:00,
2013-09-30 22:24:00,63.1,36.0,29.73,ESE,103,0.0,1.0,37,0.00,,,0.00,weatherlink.com 1.10,2013-10-01 04:24:00,
2013-09-30 22:39:00,63.3,34.0,29.73,ESE,103,0.0,1.0,33,0.00,,,0.00,weatherlink.com 1.10,2013-10-01 04:39:00,
2013-09-30 22:54:00,64.2,36.0,29.73,ESE,103,0.0,0.0,35,0.00,,,0.00,weatherlink.com 1.10,2013-10-01 04:54:00,
2013-09-30 23:09:00,65.0,37.0,29.72,ESE,103,0.0,0.0,36,0.00,,,0.00,weatherlink.com 1.10,2013-10-01 05:09:00,
2013-09-30 23:24:00,63.9,33.0,29.72,ESE,103,0.0,0.0,32,0.00,,,0.00,weatherlink.com 1.10,2013-10-01 05:24:00,
2013-09-30 23:39:00,62.9,37.0,29.72,ESE,103,0.0,0.0,38,0.00,,,0.00,weatherlink.com 1.10,2013-10-01 05:39:00,
2013-09-30 23:54:00,60.9,34.0,29.73,ESE,106,1.0,2.0,37,0.00,,,0.00,weatherlink.com 1.10,2013-10-01 05:54:00,